sensor_id;sensor_type;location;lat;lon;timestamp;temperature;humidity
7530;DHT22;3806;52.270;10.544;2023-06-22T00:02:24;22.30;99.90
7530;DHT22;3806;52.270;10.544;2023-06-22T00:04:49;22.20;99.90
7530;DHT22;3806;52.270;10.544;2023-06-22T00:07:15;22.20;99.90
7530;DHT22;3806;52.270;10.544;2023-06-22T00:09:40;22.10;99.90
7530;DHT22;3806;52.270;10.544;2023-06-22T00:12:06;22.10;99.90
7530;DHT22;3806;52.270;10.544;2023-06-22T00:14:32;22.00;99.90
7530;DHT22;3806;52.270;10.544;2023-06-22T00:16:57;21.90;99.90
7530;DHT22;3806;52.270;10.544;2023-06-22T00:19:24;21.90;99.90
7530;DHT22;3806;52.270;10.544;2023-06-22T00:21:53;21.80;99.90
7530;DHT22;3806;52.270;10.544;2023-06-22T00:24:19;21.80;99.90
7530;DHT22;3806;52.270;10.544;2023-06-22T00:26:45;21.70;99.90
7530;DHT22;3806;52.270;10.544;2023-06-22T00:29:10;21.60;99.90
7530;DHT22;3806;52.270;10.544;2023-06-22T00:31:36;21.60;99.90
7530;DHT22;3806;52.270;10.544;2023-06-22T00:34:01;21.60;99.90
7530;DHT22;3806;52.270;10.544;2023-06-22T00:36:27;21.50;99.90
7530;DHT22;3806;52.270;10.544;2023-06-22T00:38:52;21.50;99.90
7530;DHT22;3806;52.270;10.544;2023-06-22T00:41:18;21.50;99.90
7530;DHT22;3806;52.270;10.544;2023-06-22T00:43:43;21.50;99.90
7530;DHT22;3806;52.270;10.544;2023-06-22T00:46:09;21.40;99.90
7530;DHT22;3806;52.270;10.544;2023-06-22T00:48:35;21.40;99.90
7530;DHT22;3806;52.270;10.544;2023-06-22T00:51:02;21.40;99.90
7530;DHT22;3806;52.270;10.544;2023-06-22T00:53:31;21.40;99.90
7530;DHT22;3806;52.270;10.544;2023-06-22T00:56:00;21.40;99.90
7530;DHT22;3806;52.270;10.544;2023-06-22T00:58:26;21.40;99.90
7530;DHT22;3806;52.270;10.544;2023-06-22T01:00:51;21.30;99.90
7530;DHT22;3806;52.270;10.544;2023-06-22T01:03:17;21.30;99.90
7530;DHT22;3806;52.270;10.544;2023-06-22T01:05:42;21.30;99.90
7530;DHT22;3806;52.270;10.544;2023-06-22T01:10:53;21.20;99.90
7530;DHT22;3806;52.270;10.544;2023-06-22T01:13:41;21.20;99.90
7530;DHT22;3806;52.270;10.544;2023-06-22T01:16:20;21.20;99.90
7530;DHT22;3806;52.270;10.544;2023-06-22T01:18:52;21.10;99.90
7530;DHT22;3806;52.270;10.544;2023-06-22T01:21:19;21.10;99.90
7530;DHT22;3806;52.270;10.544;2023-06-22T01:24:18;21.10;99.90
7530;DHT22;3806;52.270;10.544;2023-06-22T01:27:26;21.10;99.90
7530;DHT22;3806;52.270;10.544;2023-06-22T01:29:56;21.10;99.90
7530;DHT22;3806;52.270;10.544;2023-06-22T01:32:34;21.10;99.90
7530;DHT22;3806;52.270;10.544;2023-06-22T01:35:03;21.00;99.90
7530;DHT22;3806;52.270;10.544;2023-06-22T01:37:29;21.00;99.90
7530;DHT22;3806;52.270;10.544;2023-06-22T01:39:57;21.00;99.90
7530;DHT22;3806;52.270;10.544;2023-06-22T01:42:24;21.00;99.90
7530;DHT22;3806;52.270;10.544;2023-06-22T01:44:52;21.00;99.90
7530;DHT22;3806;52.270;10.544;2023-06-22T01:47:18;21.00;99.90
7530;DHT22;3806;52.270;10.544;2023-06-22T01:49:44;21.00;99.90
7530;DHT22;3806;52.270;10.544;2023-06-22T01:52:11;21.00;99.90
7530;DHT22;3806;52.270;10.544;2023-06-22T01:54:39;21.00;99.90
7530;DHT22;3806;52.270;10.544;2023-06-22T01:57:05;21.00;99.90
7530;DHT22;3806;52.270;10.544;2023-06-22T02:00:00;21.00;99.90
7530;DHT22;3806;52.270;10.544;2023-06-22T02:02:33;20.90;99.90
7530;DHT22;3806;52.270;10.544;2023-06-22T02:05:06;20.90;99.90
7530;DHT22;3806;52.270;10.544;2023-06-22T02:07:36;20.90;99.90
7530;DHT22;3806;52.270;10.544;2023-06-22T02:10:06;20.90;99.90
7530;DHT22;3806;52.270;10.544;2023-06-22T02:12:33;20.80;99.90
7530;DHT22;3806;52.270;10.544;2023-06-22T02:15:00;20.80;99.90
7530;DHT22;3806;52.270;10.544;2023-06-22T02:17:26;20.80;99.90
7530;DHT22;3806;52.270;10.544;2023-06-22T02:19:52;20.80;99.90
7530;DHT22;3806;52.270;10.544;2023-06-22T02:22:17;20.80;99.90
7530;DHT22;3806;52.270;10.544;2023-06-22T02:24:43;20.80;99.90
7530;DHT22;3806;52.270;10.544;2023-06-22T02:27:09;20.70;99.90
7530;DHT22;3806;52.270;10.544;2023-06-22T02:29:36;20.70;99.90
7530;DHT22;3806;52.270;10.544;2023-06-22T02:32:02;20.70;99.90
7530;DHT22;3806;52.270;10.544;2023-06-22T02:34:27;20.70;99.90
7530;DHT22;3806;52.270;10.544;2023-06-22T02:36:53;20.60;99.90
7530;DHT22;3806;52.270;10.544;2023-06-22T02:39:20;20.70;99.90
7530;DHT22;3806;52.270;10.544;2023-06-22T02:41:48;20.60;99.90
7530;DHT22;3806;52.270;10.544;2023-06-22T02:44:13;20.60;99.90
7530;DHT22;3806;52.270;10.544;2023-06-22T02:46:39;20.60;99.90
7530;DHT22;3806;52.270;10.544;2023-06-22T02:49:04;20.60;99.90
7530;DHT22;3806;52.270;10.544;2023-06-22T02:51:33;20.60;99.90
7530;DHT22;3806;52.270;10.544;2023-06-22T02:53:59;20.60;99.90
7530;DHT22;3806;52.270;10.544;2023-06-22T02:56:25;20.60;99.90
7530;DHT22;3806;52.270;10.544;2023-06-22T02:58:51;20.50;99.90
7530;DHT22;3806;52.270;10.544;2023-06-22T03:01:16;20.50;99.90
7530;DHT22;3806;52.270;10.544;2023-06-22T03:03:42;20.50;99.90
7530;DHT22;3806;52.270;10.544;2023-06-22T03:06:08;20.50;99.90
7530;DHT22;3806;52.270;10.544;2023-06-22T03:08:33;20.60;99.90
7530;DHT22;3806;52.270;10.544;2023-06-22T03:10:59;20.50;99.90
7530;DHT22;3806;52.270;10.544;2023-06-22T03:13:25;20.50;99.90
7530;DHT22;3806;52.270;10.544;2023-06-22T03:15:50;20.40;99.90
7530;DHT22;3806;52.270;10.544;2023-06-22T03:18:16;20.40;99.90
7530;DHT22;3806;52.270;10.544;2023-06-22T03:20:42;20.40;99.90
7530;DHT22;3806;52.270;10.544;2023-06-22T03:23:07;20.40;99.90
7530;DHT22;3806;52.270;10.544;2023-06-22T03:25:32;20.50;99.90
7530;DHT22;3806;52.270;10.544;2023-06-22T03:27:59;20.50;99.90
7530;DHT22;3806;52.270;10.544;2023-06-22T03:30:25;20.50;99.90
7530;DHT22;3806;52.270;10.544;2023-06-22T03:32:51;20.50;99.90
7530;DHT22;3806;52.270;10.544;2023-06-22T03:35:16;20.60;99.90
7530;DHT22;3806;52.270;10.544;2023-06-22T03:37:42;20.60;99.90
7530;DHT22;3806;52.270;10.544;2023-06-22T03:40:08;20.60;99.90
7530;DHT22;3806;52.270;10.544;2023-06-22T03:42:34;20.70;99.90
7530;DHT22;3806;52.270;10.544;2023-06-22T03:45:03;20.70;99.90
7530;DHT22;3806;52.270;10.544;2023-06-22T03:47:29;20.70;99.90
7530;DHT22;3806;52.270;10.544;2023-06-22T03:49:54;20.80;99.90
7530;DHT22;3806;52.270;10.544;2023-06-22T03:52:21;20.80;99.90
7530;DHT22;3806;52.270;10.544;2023-06-22T03:54:47;20.80;99.90
7530;DHT22;3806;52.270;10.544;2023-06-22T03:57:13;20.90;99.90
7530;DHT22;3806;52.270;10.544;2023-06-22T03:59:38;20.90;99.90
7530;DHT22;3806;52.270;10.544;2023-06-22T04:02:04;20.90;99.90
7530;DHT22;3806;52.270;10.544;2023-06-22T04:04:29;20.90;99.90
7530;DHT22;3806;52.270;10.544;2023-06-22T04:06:55;20.90;99.90
7530;DHT22;3806;52.270;10.544;2023-06-22T04:09:20;21.00;99.90
7530;DHT22;3806;52.270;10.544;2023-06-22T04:11:47;20.90;99.90
7530;DHT22;3806;52.270;10.544;2023-06-22T04:14:13;21.00;99.90
7530;DHT22;3806;52.270;10.544;2023-06-22T04:16:38;21.00;99.90
7530;DHT22;3806;52.270;10.544;2023-06-22T04:19:04;21.00;99.90
7530;DHT22;3806;52.270;10.544;2023-06-22T04:21:29;21.00;99.90
7530;DHT22;3806;52.270;10.544;2023-06-22T04:23:55;21.00;99.90
7530;DHT22;3806;52.270;10.544;2023-06-22T04:26:21;21.10;99.90
7530;DHT22;3806;52.270;10.544;2023-06-22T04:28:47;21.10;99.90
7530;DHT22;3806;52.270;10.544;2023-06-22T04:31:24;21.20;99.90
7530;DHT22;3806;52.270;10.544;2023-06-22T04:33:57;21.30;99.90
7530;DHT22;3806;52.270;10.544;2023-06-22T04:36:23;21.30;99.90
7530;DHT22;3806;52.270;10.544;2023-06-22T04:38:48;21.40;99.90
7530;DHT22;3806;52.270;10.544;2023-06-22T04:41:17;21.40;99.90
7530;DHT22;3806;52.270;10.544;2023-06-22T04:43:48;21.40;99.90
7530;DHT22;3806;52.270;10.544;2023-06-22T04:46:19;21.40;99.90
7530;DHT22;3806;52.270;10.544;2023-06-22T04:48:44;21.50;99.90
7530;DHT22;3806;52.270;10.544;2023-06-22T04:51:10;21.60;99.90
7530;DHT22;3806;52.270;10.544;2023-06-22T04:53:35;21.60;99.90
7530;DHT22;3806;52.270;10.544;2023-06-22T04:56:01;21.60;99.90
7530;DHT22;3806;52.270;10.544;2023-06-22T04:58:29;21.50;99.90
7530;DHT22;3806;52.270;10.544;2023-06-22T05:00:57;21.60;99.90
7530;DHT22;3806;52.270;10.544;2023-06-22T05:03:25;21.60;99.90
7530;DHT22;3806;52.270;10.544;2023-06-22T05:05:51;21.70;99.90
7530;DHT22;3806;52.270;10.544;2023-06-22T05:08:17;21.80;99.90
7530;DHT22;3806;52.270;10.544;2023-06-22T05:10:43;21.90;99.90
7530;DHT22;3806;52.270;10.544;2023-06-22T05:13:08;21.90;99.90
7530;DHT22;3806;52.270;10.544;2023-06-22T05:15:34;22.00;99.90
7530;DHT22;3806;52.270;10.544;2023-06-22T05:18:05;22.10;99.90
7530;DHT22;3806;52.270;10.544;2023-06-22T05:20:31;22.20;99.90
7530;DHT22;3806;52.270;10.544;2023-06-22T05:22:57;22.20;99.90
7530;DHT22;3806;52.270;10.544;2023-06-22T05:25:23;22.30;99.90
7530;DHT22;3806;52.270;10.544;2023-06-22T05:27:48;22.30;99.90
7530;DHT22;3806;52.270;10.544;2023-06-22T05:30:16;22.40;99.90
7530;DHT22;3806;52.270;10.544;2023-06-22T05:32:42;22.40;99.90
7530;DHT22;3806;52.270;10.544;2023-06-22T05:35:09;22.50;99.90
7530;DHT22;3806;52.270;10.544;2023-06-22T05:37:35;22.50;99.90
7530;DHT22;3806;52.270;10.544;2023-06-22T05:40:00;22.60;99.90
7530;DHT22;3806;52.270;10.544;2023-06-22T05:42:26;22.60;99.90
7530;DHT22;3806;52.270;10.544;2023-06-22T05:44:52;22.70;99.90
7530;DHT22;3806;52.270;10.544;2023-06-22T05:47:18;22.80;99.90
7530;DHT22;3806;52.270;10.544;2023-06-22T05:49:44;22.90;99.90
7530;DHT22;3806;52.270;10.544;2023-06-22T05:52:09;23.00;99.80
7530;DHT22;3806;52.270;10.544;2023-06-22T05:54:35;23.00;99.80
7530;DHT22;3806;52.270;10.544;2023-06-22T05:57:01;23.20;99.90
7530;DHT22;3806;52.270;10.544;2023-06-22T05:59:26;23.30;99.30
7530;DHT22;3806;52.270;10.544;2023-06-22T06:01:52;23.30;99.10
7530;DHT22;3806;52.270;10.544;2023-06-22T06:04:18;23.40;98.90
7530;DHT22;3806;52.270;10.544;2023-06-22T06:06:43;23.60;98.80
7530;DHT22;3806;52.270;10.544;2023-06-22T06:09:09;23.60;98.60
7530;DHT22;3806;52.270;10.544;2023-06-22T06:11:37;23.60;98.20
7530;DHT22;3806;52.270;10.544;2023-06-22T06:14:02;23.60;98.10
7530;DHT22;3806;52.270;10.544;2023-06-22T06:16:28;23.60;98.20
7530;DHT22;3806;52.270;10.544;2023-06-22T06:18:53;23.60;98.20
7530;DHT22;3806;52.270;10.544;2023-06-22T06:21:21;23.60;98.20
7530;DHT22;3806;52.270;10.544;2023-06-22T06:23:46;23.60;98.20
7530;DHT22;3806;52.270;10.544;2023-06-22T06:26:12;23.60;98.40
7530;DHT22;3806;52.270;10.544;2023-06-22T06:28:38;23.60;98.30
7530;DHT22;3806;52.270;10.544;2023-06-22T06:31:03;23.50;98.50
7530;DHT22;3806;52.270;10.544;2023-06-22T06:33:33;23.40;98.70
7530;DHT22;3806;52.270;10.544;2023-06-22T06:35:58;23.40;98.90
7530;DHT22;3806;52.270;10.544;2023-06-22T06:38:27;23.50;98.80
7530;DHT22;3806;52.270;10.544;2023-06-22T06:40:52;23.50;98.70
7530;DHT22;3806;52.270;10.544;2023-06-22T06:43:18;23.60;98.80
7530;DHT22;3806;52.270;10.544;2023-06-22T06:45:44;23.60;98.90
7530;DHT22;3806;52.270;10.544;2023-06-22T06:48:09;23.60;98.80
7530;DHT22;3806;52.270;10.544;2023-06-22T06:50:35;23.60;98.80
7530;DHT22;3806;52.270;10.544;2023-06-22T06:53:00;23.60;98.90
7530;DHT22;3806;52.270;10.544;2023-06-22T06:55:26;23.70;98.90
7530;DHT22;3806;52.270;10.544;2023-06-22T06:57:51;23.70;98.70
7530;DHT22;3806;52.270;10.544;2023-06-22T07:00:18;23.70;98.60
7530;DHT22;3806;52.270;10.544;2023-06-22T07:02:44;23.80;98.70
7530;DHT22;3806;52.270;10.544;2023-06-22T07:05:11;23.80;98.50
7530;DHT22;3806;52.270;10.544;2023-06-22T07:07:40;23.80;98.50
7530;DHT22;3806;52.270;10.544;2023-06-22T07:10:07;23.80;98.60
7530;DHT22;3806;52.270;10.544;2023-06-22T07:12:33;24.00;98.30
7530;DHT22;3806;52.270;10.544;2023-06-22T07:15:06;24.00;98.10
7530;DHT22;3806;52.270;10.544;2023-06-22T07:17:35;24.00;98.20
7530;DHT22;3806;52.270;10.544;2023-06-22T07:20:02;24.00;98.40
7530;DHT22;3806;52.270;10.544;2023-06-22T07:22:32;24.00;98.20
7530;DHT22;3806;52.270;10.544;2023-06-22T07:24:58;24.00;98.30
7530;DHT22;3806;52.270;10.544;2023-06-22T07:27:24;24.10;98.50
7530;DHT22;3806;52.270;10.544;2023-06-22T07:29:50;24.20;98.60
7530;DHT22;3806;52.270;10.544;2023-06-22T07:32:16;24.40;98.60
7530;DHT22;3806;52.270;10.544;2023-06-22T07:34:41;24.60;98.40
7530;DHT22;3806;52.270;10.544;2023-06-22T07:37:07;24.70;98.10
7530;DHT22;3806;52.270;10.544;2023-06-22T07:39:32;24.90;97.80
7530;DHT22;3806;52.270;10.544;2023-06-22T07:41:58;25.00;97.30
7530;DHT22;3806;52.270;10.544;2023-06-22T07:44:24;25.10;96.80
7530;DHT22;3806;52.270;10.544;2023-06-22T07:46:49;25.20;96.70
7530;DHT22;3806;52.270;10.544;2023-06-22T07:49:14;25.30;96.50
7530;DHT22;3806;52.270;10.544;2023-06-22T07:51:40;25.50;95.90
7530;DHT22;3806;52.270;10.544;2023-06-22T07:54:05;25.60;95.60
7530;DHT22;3806;52.270;10.544;2023-06-22T07:56:31;25.80;95.30
7530;DHT22;3806;52.270;10.544;2023-06-22T07:58:58;26.00;94.40
7530;DHT22;3806;52.270;10.544;2023-06-22T08:01:24;26.20;94.30
7530;DHT22;3806;52.270;10.544;2023-06-22T08:03:50;26.40;93.90
7530;DHT22;3806;52.270;10.544;2023-06-22T08:06:15;26.60;93.30
7530;DHT22;3806;52.270;10.544;2023-06-22T08:08:41;26.70;93.20
7530;DHT22;3806;52.270;10.544;2023-06-22T08:11:08;26.80;92.40
7530;DHT22;3806;52.270;10.544;2023-06-22T08:13:33;26.80;92.90
7530;DHT22;3806;52.270;10.544;2023-06-22T08:15:59;26.80;93.10
7530;DHT22;3806;52.270;10.544;2023-06-22T08:18:25;26.80;92.90
7530;DHT22;3806;52.270;10.544;2023-06-22T08:20:50;26.90;92.80
7530;DHT22;3806;52.270;10.544;2023-06-22T08:23:16;26.90;92.90
7530;DHT22;3806;52.270;10.544;2023-06-22T08:25:41;27.00;92.10
7530;DHT22;3806;52.270;10.544;2023-06-22T08:28:07;26.90;92.40
7530;DHT22;3806;52.270;10.544;2023-06-22T08:30:32;26.90;92.60
7530;DHT22;3806;52.270;10.544;2023-06-22T08:32:58;27.00;92.20
7530;DHT22;3806;52.270;10.544;2023-06-22T08:35:24;27.00;92.40
7530;DHT22;3806;52.270;10.544;2023-06-22T08:37:49;27.10;91.80
7530;DHT22;3806;52.270;10.544;2023-06-22T08:40:18;27.20;91.80
7530;DHT22;3806;52.270;10.544;2023-06-22T08:42:45;27.10;92.10
7530;DHT22;3806;52.270;10.544;2023-06-22T08:45:12;27.10;91.40
7530;DHT22;3806;52.270;10.544;2023-06-22T08:47:38;27.10;91.10
7530;DHT22;3806;52.270;10.544;2023-06-22T08:50:04;27.00;91.40
7530;DHT22;3806;52.270;10.544;2023-06-22T08:52:30;26.90;91.70
7530;DHT22;3806;52.270;10.544;2023-06-22T08:54:56;26.70;92.00
7530;DHT22;3806;52.270;10.544;2023-06-22T08:57:23;26.70;92.50
7530;DHT22;3806;52.270;10.544;2023-06-22T08:59:49;26.70;92.90
7530;DHT22;3806;52.270;10.544;2023-06-22T09:02:14;26.80;93.10
7530;DHT22;3806;52.270;10.544;2023-06-22T09:04:40;27.00;92.50
7530;DHT22;3806;52.270;10.544;2023-06-22T09:07:05;27.20;91.90
7530;DHT22;3806;52.270;10.544;2023-06-22T09:09:31;27.30;92.10
7530;DHT22;3806;52.270;10.544;2023-06-22T09:11:56;27.30;91.80
7530;DHT22;3806;52.270;10.544;2023-06-22T09:14:22;27.40;91.70
7530;DHT22;3806;52.270;10.544;2023-06-22T09:16:47;27.30;91.80
7530;DHT22;3806;52.270;10.544;2023-06-22T09:19:13;27.40;91.60
7530;DHT22;3806;52.270;10.544;2023-06-22T09:21:38;27.30;91.80
7530;DHT22;3806;52.270;10.544;2023-06-22T09:24:04;27.20;92.00
7530;DHT22;3806;52.270;10.544;2023-06-22T09:26:30;27.20;92.30
7530;DHT22;3806;52.270;10.544;2023-06-22T09:28:55;27.10;92.70
7530;DHT22;3806;52.270;10.544;2023-06-22T09:31:21;27.10;92.90
7530;DHT22;3806;52.270;10.544;2023-06-22T09:33:53;27.20;92.90
7530;DHT22;3806;52.270;10.544;2023-06-22T09:36:22;27.40;92.50
7530;DHT22;3806;52.270;10.544;2023-06-22T09:38:48;27.70;92.20
7530;DHT22;3806;52.270;10.544;2023-06-22T09:41:13;27.90;92.00
7530;DHT22;3806;52.270;10.544;2023-06-22T09:43:39;28.10;91.90
7530;DHT22;3806;52.270;10.544;2023-06-22T09:46:04;28.30;91.20
7530;DHT22;3806;52.270;10.544;2023-06-22T09:48:31;28.50;90.90
7530;DHT22;3806;52.270;10.544;2023-06-22T09:50:56;28.60;91.00
7530;DHT22;3806;52.270;10.544;2023-06-22T09:53:22;28.70;90.60
7530;DHT22;3806;52.270;10.544;2023-06-22T09:55:47;28.90;90.60
7530;DHT22;3806;52.270;10.544;2023-06-22T09:58:13;29.00;90.10
7530;DHT22;3806;52.270;10.544;2023-06-22T10:00:38;29.20;90.10
7530;DHT22;3806;52.270;10.544;2023-06-22T10:03:04;29.30;87.90
7530;DHT22;3806;52.270;10.544;2023-06-22T10:05:29;29.20;86.90
7530;DHT22;3806;52.270;10.544;2023-06-22T10:07:55;29.40;87.10
7530;DHT22;3806;52.270;10.544;2023-06-22T10:10:20;29.40;86.10
7530;DHT22;3806;52.270;10.544;2023-06-22T10:12:47;29.50;84.30
7530;DHT22;3806;52.270;10.544;2023-06-22T10:15:13;29.50;83.30
7530;DHT22;3806;52.270;10.544;2023-06-22T10:17:39;29.40;83.10
7530;DHT22;3806;52.270;10.544;2023-06-22T10:20:08;29.30;84.00
7530;DHT22;3806;52.270;10.544;2023-06-22T10:22:41;29.30;82.80
7530;DHT22;3806;52.270;10.544;2023-06-22T10:25:08;29.20;83.70
7530;DHT22;3806;52.270;10.544;2023-06-22T10:27:34;28.90;84.70
7530;DHT22;3806;52.270;10.544;2023-06-22T10:29:59;28.80;85.20
7530;DHT22;3806;52.270;10.544;2023-06-22T10:32:25;28.80;84.80
7530;DHT22;3806;52.270;10.544;2023-06-22T10:34:50;28.70;85.50
7530;DHT22;3806;52.270;10.544;2023-06-22T10:37:16;28.60;86.40
7530;DHT22;3806;52.270;10.544;2023-06-22T10:39:41;28.60;86.80
7530;DHT22;3806;52.270;10.544;2023-06-22T10:42:07;28.60;86.90
7530;DHT22;3806;52.270;10.544;2023-06-22T10:44:32;28.60;86.40
7530;DHT22;3806;52.270;10.544;2023-06-22T10:46:58;28.70;86.40
7530;DHT22;3806;52.270;10.544;2023-06-22T10:49:23;28.70;86.40
7530;DHT22;3806;52.270;10.544;2023-06-22T10:51:49;28.80;85.70
7530;DHT22;3806;52.270;10.544;2023-06-22T10:54:14;28.80;85.70
7530;DHT22;3806;52.270;10.544;2023-06-22T10:56:42;28.90;85.60
7530;DHT22;3806;52.270;10.544;2023-06-22T10:59:08;29.10;85.00
7530;DHT22;3806;52.270;10.544;2023-06-22T11:01:33;29.30;83.00
7530;DHT22;3806;52.270;10.544;2023-06-22T11:03:59;29.40;83.60
7530;DHT22;3806;52.270;10.544;2023-06-22T11:06:24;29.60;83.10
7530;DHT22;3806;52.270;10.544;2023-06-22T11:08:50;29.80;82.20
7530;DHT22;3806;52.270;10.544;2023-06-22T11:11:15;29.90;81.40
7530;DHT22;3806;52.270;10.544;2023-06-22T11:13:43;30.10;80.80
7530;DHT22;3806;52.270;10.544;2023-06-22T11:16:09;30.30;79.20
7530;DHT22;3806;52.270;10.544;2023-06-22T11:18:35;30.40;78.80
7530;DHT22;3806;52.270;10.544;2023-06-22T11:21:00;30.50;80.10
7530;DHT22;3806;52.270;10.544;2023-06-22T11:23:26;30.70;78.80
7530;DHT22;3806;52.270;10.544;2023-06-22T11:25:53;30.80;75.00
7530;DHT22;3806;52.270;10.544;2023-06-22T11:28:18;30.90;73.80
7530;DHT22;3806;52.270;10.544;2023-06-22T11:30:44;30.70;73.80
7530;DHT22;3806;52.270;10.544;2023-06-22T11:33:09;30.70;73.70
7530;DHT22;3806;52.270;10.544;2023-06-22T11:35:35;30.80;73.40
7530;DHT22;3806;52.270;10.544;2023-06-22T11:38:00;30.90;72.10
7530;DHT22;3806;52.270;10.544;2023-06-22T11:40:26;30.90;73.00
7530;DHT22;3806;52.270;10.544;2023-06-22T11:42:51;30.90;73.40
7530;DHT22;3806;52.270;10.544;2023-06-22T11:45:17;31.10;72.70
7530;DHT22;3806;52.270;10.544;2023-06-22T11:47:43;31.30;69.30
7530;DHT22;3806;52.270;10.544;2023-06-22T11:50:09;31.40;68.10
7530;DHT22;3806;52.270;10.544;2023-06-22T11:52:35;31.50;68.10
7530;DHT22;3806;52.270;10.544;2023-06-22T11:55:04;31.70;66.60
7530;DHT22;3806;52.270;10.544;2023-06-22T11:57:34;31.80;64.90
7530;DHT22;3806;52.270;10.544;2023-06-22T11:59:59;31.90;63.90
7530;DHT22;3806;52.270;10.544;2023-06-22T12:02:25;31.80;63.70
7530;DHT22;3806;52.270;10.544;2023-06-22T12:04:50;31.60;63.30
7530;DHT22;3806;52.270;10.544;2023-06-22T12:07:18;31.50;63.80
7530;DHT22;3806;52.270;10.544;2023-06-22T12:09:43;31.30;64.10
7530;DHT22;3806;52.270;10.544;2023-06-22T12:12:09;31.10;64.80
7530;DHT22;3806;52.270;10.544;2023-06-22T12:14:35;30.90;65.60
7530;DHT22;3806;52.270;10.544;2023-06-22T12:17:00;30.90;65.00
7530;DHT22;3806;52.270;10.544;2023-06-22T12:19:26;30.90;66.20
7530;DHT22;3806;52.270;10.544;2023-06-22T12:21:51;31.00;66.40
7530;DHT22;3806;52.270;10.544;2023-06-22T12:24:17;31.10;65.60
7530;DHT22;3806;52.270;10.544;2023-06-22T12:26:42;31.00;66.60
7530;DHT22;3806;52.270;10.544;2023-06-22T12:29:08;31.00;64.50
7530;DHT22;3806;52.270;10.544;2023-06-22T12:31:35;30.90;64.60
7530;DHT22;3806;52.270;10.544;2023-06-22T12:34:00;30.80;64.90
7530;DHT22;3806;52.270;10.544;2023-06-22T12:36:26;30.70;65.50
7530;DHT22;3806;52.270;10.544;2023-06-22T12:38:51;30.60;63.50
7530;DHT22;3806;52.270;10.544;2023-06-22T12:41:17;30.60;65.50
7530;DHT22;3806;52.270;10.544;2023-06-22T12:43:42;30.60;66.30
7530;DHT22;3806;52.270;10.544;2023-06-22T12:46:08;30.70;67.10
7530;DHT22;3806;52.270;10.544;2023-06-22T12:48:33;30.80;66.70
7530;DHT22;3806;52.270;10.544;2023-06-22T12:50:59;30.80;65.30
7530;DHT22;3806;52.270;10.544;2023-06-22T12:53:24;30.80;65.30
7530;DHT22;3806;52.270;10.544;2023-06-22T12:55:52;30.90;64.70
7530;DHT22;3806;52.270;10.544;2023-06-22T12:58:18;30.90;65.00
7530;DHT22;3806;52.270;10.544;2023-06-22T13:00:43;30.90;65.70
7530;DHT22;3806;52.270;10.544;2023-06-22T13:03:09;31.00;64.80
7530;DHT22;3806;52.270;10.544;2023-06-22T13:05:34;31.00;65.40
7530;DHT22;3806;52.270;10.544;2023-06-22T13:08:01;30.90;66.00
7530;DHT22;3806;52.270;10.544;2023-06-22T13:10:27;31.00;64.00
7530;DHT22;3806;52.270;10.544;2023-06-22T13:12:52;30.80;64.10
7530;DHT22;3806;52.270;10.544;2023-06-22T13:15:28;30.70;65.10
7530;DHT22;3806;52.270;10.544;2023-06-22T13:17:54;30.60;65.80
7530;DHT22;3806;52.270;10.544;2023-06-22T13:20:20;30.60;65.80
7530;DHT22;3806;52.270;10.544;2023-06-22T13:22:48;30.60;66.60
7530;DHT22;3806;52.270;10.544;2023-06-22T13:25:13;30.60;66.70
7530;DHT22;3806;52.270;10.544;2023-06-22T13:27:44;30.60;66.80
7530;DHT22;3806;52.270;10.544;2023-06-22T13:30:10;30.60;66.10
7530;DHT22;3806;52.270;10.544;2023-06-22T13:32:36;30.60;67.30
7530;DHT22;3806;52.270;10.544;2023-06-22T13:35:01;30.70;67.00
7530;DHT22;3806;52.270;10.544;2023-06-22T13:37:27;30.70;67.20
7530;DHT22;3806;52.270;10.544;2023-06-22T13:39:53;30.60;68.30
7530;DHT22;3806;52.270;10.544;2023-06-22T13:42:18;30.40;68.80
7530;DHT22;3806;52.270;10.544;2023-06-22T13:44:44;30.50;66.60
7530;DHT22;3806;52.270;10.544;2023-06-22T13:47:09;30.50;66.60
7530;DHT22;3806;52.270;10.544;2023-06-22T13:49:35;30.40;66.80
7530;DHT22;3806;52.270;10.544;2023-06-22T13:52:00;30.30;67.60
7530;DHT22;3806;52.270;10.544;2023-06-22T13:54:26;30.20;67.80
7530;DHT22;3806;52.270;10.544;2023-06-22T13:56:51;30.00;69.10
7530;DHT22;3806;52.270;10.544;2023-06-22T13:59:17;29.90;69.40
7530;DHT22;3806;52.270;10.544;2023-06-22T14:01:43;29.90;69.30
7530;DHT22;3806;52.270;10.544;2023-06-22T14:04:08;29.70;70.10
7530;DHT22;3806;52.270;10.544;2023-06-22T14:06:34;29.60;69.90
7530;DHT22;3806;52.270;10.544;2023-06-22T14:08:59;29.60;70.70
7530;DHT22;3806;52.270;10.544;2023-06-22T14:11:25;29.50;71.10
7530;DHT22;3806;52.270;10.544;2023-06-22T14:13:51;29.50;70.60
7530;DHT22;3806;52.270;10.544;2023-06-22T14:16:17;29.40;71.00
7530;DHT22;3806;52.270;10.544;2023-06-22T14:18:42;29.50;70.60
7530;DHT22;3806;52.270;10.544;2023-06-22T14:21:08;29.40;71.10
7530;DHT22;3806;52.270;10.544;2023-06-22T14:23:33;29.50;71.30
7530;DHT22;3806;52.270;10.544;2023-06-22T14:25:59;29.50;70.20
7530;DHT22;3806;52.270;10.544;2023-06-22T14:28:25;29.50;70.10
7530;DHT22;3806;52.270;10.544;2023-06-22T14:30:50;29.50;70.90
7530;DHT22;3806;52.270;10.544;2023-06-22T14:33:16;29.40;71.30
7530;DHT22;3806;52.270;10.544;2023-06-22T14:35:41;29.40;71.80
7530;DHT22;3806;52.270;10.544;2023-06-22T14:38:07;29.40;71.90
7530;DHT22;3806;52.270;10.544;2023-06-22T14:40:32;29.40;71.80
7530;DHT22;3806;52.270;10.544;2023-06-22T14:42:58;29.40;71.60
7530;DHT22;3806;52.270;10.544;2023-06-22T14:45:24;29.40;72.00
7530;DHT22;3806;52.270;10.544;2023-06-22T14:47:49;29.50;72.90
7530;DHT22;3806;52.270;10.544;2023-06-22T14:50:15;29.60;73.70
7530;DHT22;3806;52.270;10.544;2023-06-22T14:52:41;29.60;72.70
7530;DHT22;3806;52.270;10.544;2023-06-22T14:55:07;29.50;72.60
7530;DHT22;3806;52.270;10.544;2023-06-22T14:57:32;29.50;72.60
7530;DHT22;3806;52.270;10.544;2023-06-22T14:59:58;29.50;72.30
7530;DHT22;3806;52.270;10.544;2023-06-22T15:02:23;29.40;73.40
7530;DHT22;3806;52.270;10.544;2023-06-22T15:04:49;29.40;72.60
7530;DHT22;3806;52.270;10.544;2023-06-22T15:07:14;29.40;72.70
7530;DHT22;3806;52.270;10.544;2023-06-22T15:09:40;29.40;71.40
7530;DHT22;3806;52.270;10.544;2023-06-22T15:12:08;29.20;71.80
7530;DHT22;3806;52.270;10.544;2023-06-22T15:14:39;29.30;72.70
7530;DHT22;3806;52.270;10.544;2023-06-22T15:17:06;29.30;72.40
7530;DHT22;3806;52.270;10.544;2023-06-22T15:19:31;29.30;72.50
7530;DHT22;3806;52.270;10.544;2023-06-22T15:21:57;29.20;73.10
7530;DHT22;3806;52.270;10.544;2023-06-22T15:24:22;29.20;73.30
7530;DHT22;3806;52.270;10.544;2023-06-22T15:26:48;29.20;73.60
7530;DHT22;3806;52.270;10.544;2023-06-22T15:29:13;29.20;73.60
7530;DHT22;3806;52.270;10.544;2023-06-22T15:31:39;29.10;73.80
7530;DHT22;3806;52.270;10.544;2023-06-22T15:34:04;29.00;74.10
7530;DHT22;3806;52.270;10.544;2023-06-22T15:36:30;29.00;74.00
7530;DHT22;3806;52.270;10.544;2023-06-22T15:38:55;28.90;74.10
7530;DHT22;3806;52.270;10.544;2023-06-22T15:41:22;28.90;74.30
7530;DHT22;3806;52.270;10.544;2023-06-22T15:43:50;28.70;74.90